createdAt,value
2019-06-20T00:00:04.889Z,7.27
2019-06-20T00:00:51.199Z,7.67
2019-06-20T00:01:37.519Z,6.53
2019-06-20T00:02:23.482Z,7.10
2019-06-20T00:03:09.463Z,5.87
2019-06-20T00:03:56.551Z,7.83
2019-06-20T00:04:42.559Z,7.20
2019-06-20T00:05:31.611Z,8.70
2019-06-20T00:06:17.610Z,7.67
2019-06-20T00:07:03.967Z,6.53
2019-06-20T00:07:50.419Z,7.47
2019-06-20T00:08:36.372Z,5.27
2019-06-20T00:09:22.775Z,10.50
2019-06-20T00:10:08.891Z,5.67
2019-06-20T00:10:55.007Z,6.17
2019-06-20T00:11:41.809Z,6.60
2019-06-20T00:12:28.283Z,6.07
2019-06-20T00:13:14.515Z,5.53
2019-06-20T00:14:00.366Z,8.57
2019-06-20T00:14:46.746Z,7.90
2019-06-20T00:15:33.736Z,7.40
2019-06-20T00:16:19.880Z,7.50
2019-06-20T00:17:06.110Z,7.17
2019-06-20T00:17:52.379Z,8.50
2019-06-20T00:18:38.788Z,9.47
2019-06-20T00:19:25.058Z,9.83
2019-06-20T00:20:12.024Z,7.17
2019-06-20T00:20:58.442Z,5.47
2019-06-20T00:21:44.773Z,6.43
2019-06-20T00:22:31.161Z,7.20
2019-06-20T00:23:17.402Z,9.47
2019-06-20T00:24:03.488Z,6.13
2019-06-20T00:24:49.711Z,7.53
2019-06-20T00:25:36.131Z,6.80
2019-06-20T00:26:22.357Z,7.47
2019-06-20T00:27:08.674Z,6.60
2019-06-20T00:27:55.051Z,8.83
2019-06-20T00:28:41.389Z,6.00
2019-06-20T00:29:27.216Z,7.87
2019-06-20T00:30:14.364Z,9.70
2019-06-20T00:31:00.708Z,7.13
2019-06-20T00:31:46.837Z,8.17
2019-06-20T00:32:33.437Z,5.77
2019-06-20T00:33:19.386Z,6.77
2019-06-20T00:34:06.519Z,5.60
2019-06-20T00:34:52.916Z,7.10
2019-06-20T00:35:38.904Z,6.40
2019-06-20T00:36:26.134Z,7.27
2019-06-20T00:37:12.192Z,8.07
2019-06-20T00:37:58.520Z,6.93
2019-06-20T00:38:45.508Z,7.37
2019-06-20T00:39:32.125Z,5.13
2019-06-20T00:40:18.447Z,6.50
2019-06-20T00:41:04.542Z,6.37
2019-06-20T00:41:50.891Z,5.63
2019-06-20T00:42:36.792Z,5.73
2019-06-20T00:43:23.036Z,5.03
2019-06-20T00:44:08.821Z,4.20
2019-06-20T00:44:54.764Z,7.07
2019-06-20T00:45:41.207Z,3.73
2019-06-20T00:46:27.342Z,6.23
2019-06-20T00:47:13.219Z,5.90
2019-06-20T00:47:59.091Z,6.50
2019-06-20T00:48:45.020Z,4.70
2019-06-20T00:49:31.636Z,4.07
2019-06-20T00:50:17.533Z,6.20
2019-06-20T00:51:03.499Z,4.03
2019-06-20T00:51:49.536Z,6.27
2019-06-20T00:52:35.906Z,5.17
2019-06-20T00:53:22.110Z,5.00
2019-06-20T00:54:08.628Z,3.40
2019-06-20T00:54:56.237Z,4.43
2019-06-20T00:55:42.482Z,4.93
2019-06-20T00:56:28.496Z,4.17
2019-06-20T00:57:14.580Z,3.90
2019-06-20T00:58:00.644Z,3.90
2019-06-20T00:58:47.581Z,4.20
2019-06-20T00:59:33.843Z,5.73
2019-06-20T01:00:20.544Z,3.53
2019-06-20T01:01:25.820Z,4.70
2019-06-20T01:02:11.883Z,3.77
2019-06-20T01:02:57.927Z,5.40
2019-06-20T01:03:43.875Z,4.97
2019-06-20T01:04:29.743Z,3.40
2019-06-20T01:05:15.535Z,8.07
2019-06-20T01:06:01.888Z,5.60
2019-06-20T01:06:48.284Z,5.00
2019-06-20T01:07:34.466Z,4.30
2019-06-20T01:08:20.869Z,5.50
2019-06-20T01:09:07.698Z,3.90
2019-06-20T01:09:54.315Z,8.00
2019-06-20T01:10:40.474Z,5.10
2019-06-20T01:11:26.415Z,5.60
2019-06-20T01:12:12.698Z,3.73
2019-06-20T01:12:58.836Z,3.70
2019-06-20T01:13:44.600Z,6.00
2019-06-20T01:14:30.944Z,5.35
2019-06-20T01:15:17.217Z,10.63
2019-06-20T01:16:04.972Z,4.40
2019-06-20T01:16:51.190Z,6.57
2019-06-20T01:17:37.162Z,5.93
2019-06-20T01:18:23.318Z,5.17
2019-06-20T01:19:09.472Z,4.27
2019-06-20T01:19:58.357Z,5.20
2019-06-20T01:20:44.780Z,6.00
2019-06-20T01:21:30.851Z,5.93
2019-06-20T01:22:16.868Z,5.50
2019-06-20T01:23:03.337Z,4.00
2019-06-20T01:23:50.602Z,4.97
2019-06-20T01:24:36.725Z,4.27
2019-06-20T01:25:35.857Z,4.30
2019-06-20T01:26:22.532Z,4.37
2019-06-20T01:27:08.889Z,4.90
2019-06-20T01:27:55.065Z,6.90
2019-06-20T01:28:41.327Z,5.47
2019-06-20T01:29:27.550Z,5.17
2019-06-20T01:30:13.748Z,5.80
2019-06-20T01:30:59.500Z,4.77
2019-06-20T01:31:45.477Z,5.07
2019-06-20T01:32:31.267Z,9.30
2019-06-20T01:33:17.220Z,5.30
2019-06-20T01:34:03.510Z,6.33
2019-06-20T01:34:51.189Z,6.00
2019-06-20T01:35:37.306Z,6.60
2019-06-20T01:36:23.224Z,6.60
2019-06-20T01:37:09.599Z,5.30
2019-06-20T01:37:55.595Z,5.97
2019-06-20T01:38:41.977Z,5.97
2019-06-20T01:39:28.083Z,6.77
2019-06-20T01:40:14.655Z,7.60
2019-06-20T01:41:01.203Z,7.50
2019-06-20T01:41:47.477Z,7.70
2019-06-20T01:42:34.771Z,7.03
2019-06-20T01:43:21.014Z,7.53
2019-06-20T01:44:07.672Z,6.67
2019-06-20T01:44:53.860Z,6.70
2019-06-20T01:45:39.997Z,8.35
2019-06-20T01:46:26.466Z,7.70
2019-06-20T01:47:12.502Z,6.70
2019-06-20T01:47:58.640Z,6.97
2019-06-20T01:48:44.810Z,6.67
2019-06-20T01:49:31.099Z,8.63
2019-06-20T01:50:17.475Z,9.83
2019-06-20T01:51:03.544Z,8.47
2019-06-20T01:51:49.724Z,8.78
2019-06-20T01:52:35.744Z,8.23
2019-06-20T01:53:21.875Z,8.43
2019-06-20T01:54:08.388Z,8.60
2019-06-20T01:54:54.638Z,8.87
2019-06-20T01:55:41.616Z,9.63
2019-06-20T01:56:27.496Z,9.77
2019-06-20T01:57:13.595Z,9.43
2019-06-20T01:57:59.533Z,11.17
2019-06-20T01:58:47.186Z,9.43
2019-06-20T01:59:33.797Z,9.50
2019-06-20T02:00:32.819Z,9.27
2019-06-20T02:01:20.111Z,8.97
2019-06-20T02:02:07.750Z,12.07
2019-06-20T02:02:54.267Z,9.83
2019-06-20T02:03:40.800Z,12.53
2019-06-20T02:04:26.856Z,10.60
2019-06-20T02:05:12.844Z,10.30
2019-06-20T02:05:58.898Z,10.45
2019-06-20T02:06:45.102Z,11.13
2019-06-20T02:07:31.047Z,11.70
2019-06-20T02:08:16.937Z,10.50
2019-06-20T02:09:06.902Z,11.37
2019-06-20T02:09:52.923Z,11.07
2019-06-20T02:10:38.834Z,12.23
2019-06-20T02:11:26.159Z,12.17
2019-06-20T02:12:12.320Z,11.87
2019-06-20T02:12:58.117Z,11.50
2019-06-20T02:13:44.043Z,13.00
2019-06-20T02:14:30.416Z,11.90
2019-06-20T02:15:17.277Z,12.27
2019-06-20T02:16:03.231Z,13.33
2019-06-20T02:16:49.498Z,12.57
2019-06-20T02:17:35.413Z,15.37
2019-06-20T02:18:21.481Z,12.43
2019-06-20T02:19:07.747Z,12.43
2019-06-20T02:19:53.708Z,14.50
2019-06-20T02:20:46.382Z,13.67
2019-06-20T02:21:32.366Z,13.50
2019-06-20T02:22:18.278Z,17.73
2019-06-20T02:23:05.215Z,14.90
2019-06-20T02:23:52.622Z,13.80
2019-06-20T02:24:39.004Z,14.03
2019-06-20T02:25:25.388Z,15.30
2019-06-20T02:26:11.927Z,13.80
2019-06-20T02:26:58.056Z,13.63
2019-06-20T02:27:44.349Z,16.13
2019-06-20T02:28:30.722Z,14.33
2019-06-20T02:29:17.035Z,15.37
2019-06-20T02:30:04.364Z,15.23
2019-06-20T02:30:50.326Z,14.03
2019-06-20T02:31:36.403Z,14.80
2019-06-20T02:32:22.131Z,15.17
2019-06-20T02:33:08.771Z,15.07
2019-06-20T02:33:55.068Z,15.50
2019-06-20T02:34:41.078Z,16.07
2019-06-20T02:35:27.499Z,16.87
2019-06-20T02:36:14.153Z,16.13
2019-06-20T02:37:01.246Z,17.77
2019-06-20T02:37:47.866Z,16.70
2019-06-20T02:38:34.410Z,17.33
2019-06-20T02:39:21.067Z,17.40
2019-06-20T02:40:07.476Z,18.53
2019-06-20T02:40:54.696Z,18.03
2019-06-20T02:41:41.306Z,18.13
2019-06-20T02:42:27.515Z,17.23
2019-06-20T02:43:13.517Z,18.13
2019-06-20T02:44:00.937Z,17.47
2019-06-20T02:44:48.913Z,17.57
2019-06-20T02:45:35.517Z,19.03
2019-06-20T02:46:21.866Z,18.33
2019-06-20T02:47:09.146Z,16.27
2019-06-20T02:47:55.584Z,17.60
2019-06-20T02:48:41.431Z,17.63
2019-06-20T02:49:27.942Z,17.60
2019-06-20T02:50:15.800Z,18.53
2019-06-20T02:51:02.543Z,18.30
2019-06-20T02:51:50.344Z,18.80
2019-06-20T02:52:36.669Z,16.33
2019-06-20T02:53:22.700Z,17.97
2019-06-20T02:54:08.863Z,17.87
2019-06-20T02:54:54.647Z,17.00
2019-06-20T02:55:40.552Z,17.93
2019-06-20T02:56:26.859Z,16.73
2019-06-20T02:57:13.167Z,17.27
2019-06-20T02:57:59.107Z,17.50
2019-06-20T02:58:45.023Z,16.57
2019-06-20T02:59:30.883Z,17.53
2019-06-20T03:00:27.632Z,20.70
2019-06-20T03:01:13.588Z,15.83
2019-06-20T03:02:00.158Z,17.40
2019-06-20T03:02:46.455Z,18.10
2019-06-20T03:03:32.445Z,16.85
2019-06-20T03:04:18.887Z,16.17
2019-06-20T03:05:07.040Z,17.07
2019-06-20T03:05:55.051Z,17.50
2019-06-20T03:06:41.165Z,18.13
2019-06-20T03:07:27.609Z,16.80
2019-06-20T03:08:14.032Z,17.33
2019-06-20T03:08:59.978Z,18.98
2019-06-20T03:09:45.760Z,18.83
2019-06-20T03:10:31.624Z,18.33
2019-06-20T03:11:17.674Z,17.37
2019-06-20T03:12:03.945Z,19.00
2019-06-20T03:12:49.770Z,18.43
2019-06-20T03:13:36.068Z,17.93
2019-06-20T03:14:22.020Z,17.00
2019-06-20T03:15:07.888Z,18.37
2019-06-20T03:15:53.747Z,18.23
2019-06-20T03:16:39.648Z,18.73
2019-06-20T03:17:25.603Z,17.40
2019-06-20T03:18:12.045Z,18.50
2019-06-20T03:18:58.473Z,17.20
2019-06-20T03:19:45.696Z,20.03
2019-06-20T03:20:31.987Z,17.97
2019-06-20T03:21:17.910Z,19.03
2019-06-20T03:22:03.875Z,18.70
2019-06-20T03:22:49.907Z,18.40
2019-06-20T03:23:35.917Z,17.63
2019-06-20T03:24:21.648Z,18.83
2019-06-20T03:25:07.619Z,19.20
2019-06-20T03:25:53.861Z,20.00
2019-06-20T03:26:39.859Z,20.73
2019-06-20T03:27:26.107Z,21.30
2019-06-20T03:28:11.999Z,21.70
2019-06-20T03:28:58.284Z,18.87
2019-06-20T03:29:44.200Z,19.40
2019-06-20T03:30:30.013Z,21.77
2019-06-20T03:31:15.854Z,19.47
2019-06-20T03:32:01.653Z,18.90
2019-06-20T03:32:49.044Z,18.93
2019-06-20T03:33:35.333Z,19.47
2019-06-20T03:34:21.271Z,19.30
2019-06-20T03:35:07.391Z,19.53
2019-06-20T03:35:53.642Z,23.47
2019-06-20T03:36:39.559Z,20.13
2019-06-20T03:37:25.716Z,19.33
2019-06-20T03:38:12.225Z,22.40
2019-06-20T03:38:58.763Z,18.53
2019-06-20T03:39:45.916Z,21.03
2019-06-20T03:40:34.035Z,19.17
2019-06-20T03:41:20.427Z,19.63
2019-06-20T03:42:06.563Z,19.67
2019-06-20T03:42:53.163Z,20.13
2019-06-20T03:43:40.666Z,20.53
2019-06-20T03:44:27.072Z,21.87
2019-06-20T03:45:13.502Z,21.73
2019-06-20T03:46:00.070Z,21.37
2019-06-20T03:46:46.144Z,20.57
2019-06-20T03:47:32.580Z,20.07
2019-06-20T03:48:18.487Z,20.20
2019-06-20T03:49:05.376Z,20.90
2019-06-20T03:49:51.649Z,21.40
2019-06-20T03:50:37.619Z,20.03
2019-06-20T03:51:24.887Z,21.70
2019-06-20T03:52:11.267Z,21.50
2019-06-20T03:53:03.066Z,22.83
2019-06-20T03:53:48.970Z,23.00
2019-06-20T03:54:34.943Z,27.13
2019-06-20T03:55:20.819Z,23.57
2019-06-20T03:56:06.583Z,23.53
2019-06-20T03:56:52.419Z,23.20
2019-06-20T03:57:38.297Z,23.70
2019-06-20T03:58:24.780Z,26.03
2019-06-20T03:59:11.063Z,24.03
2019-06-20T03:59:57.248Z,24.27
2019-06-20T04:00:43.122Z,23.97
2019-06-20T04:01:29.202Z,25.13
2019-06-20T04:02:15.380Z,24.63
2019-06-20T04:03:01.759Z,24.93
2019-06-20T04:03:47.653Z,25.10
2019-06-20T04:04:34.034Z,24.00
2019-06-20T04:05:19.915Z,25.43
2019-06-20T04:06:06.004Z,25.70
2019-06-20T04:06:52.091Z,22.73
2019-06-20T04:07:38.464Z,25.03
2019-06-20T04:08:24.426Z,24.53
2019-06-20T04:09:10.985Z,26.13
2019-06-20T04:09:57.751Z,26.27
2019-06-20T04:10:44.131Z,27.53
2019-06-20T04:11:31.078Z,25.20
2019-06-20T04:12:17.351Z,26.60
2019-06-20T04:13:03.439Z,25.90
2019-06-20T04:13:49.319Z,25.40
2019-06-20T04:14:35.119Z,25.17
2019-06-20T04:15:21.552Z,25.93
2019-06-20T04:16:09.031Z,25.47
2019-06-20T04:16:55.175Z,26.77
2019-06-20T04:17:41.015Z,26.07
2019-06-20T04:18:26.887Z,23.80
2019-06-20T04:19:12.633Z,25.10
2019-06-20T04:20:01.958Z,24.97
2019-06-20T04:20:48.162Z,23.97
2019-06-20T04:21:34.059Z,30.23
2019-06-20T04:22:20.458Z,26.17
2019-06-20T04:23:06.727Z,27.17
2019-06-20T04:23:53.010Z,25.97
2019-06-20T04:24:39.272Z,25.43
2019-06-20T04:25:26.581Z,24.60
2019-06-20T04:26:14.151Z,25.60
2019-06-20T04:27:00.409Z,25.17
2019-06-20T04:27:47.858Z,23.47
2019-06-20T04:28:34.227Z,26.97
2019-06-20T04:29:20.368Z,25.63
2019-06-20T04:30:07.198Z,25.00
2019-06-20T04:30:53.106Z,27.90
2019-06-20T04:31:39.472Z,25.63
2019-06-20T04:32:25.615Z,26.67
2019-06-20T04:33:11.446Z,26.77
2019-06-20T04:33:57.439Z,27.83
2019-06-20T04:34:43.423Z,31.90
2019-06-20T04:35:29.547Z,25.33
2019-06-20T04:36:16.078Z,26.13
2019-06-20T04:37:02.620Z,29.77
2019-06-20T04:37:48.848Z,26.03
2019-06-20T04:38:35.048Z,28.27
2019-06-20T04:39:21.068Z,27.03
2019-06-20T04:40:07.715Z,27.70
2019-06-20T04:40:53.565Z,29.30
2019-06-20T04:41:39.485Z,29.47
2019-06-20T04:42:26.811Z,27.33
2019-06-20T04:43:13.077Z,27.57
2019-06-20T04:43:59.496Z,31.17
2019-06-20T04:44:45.812Z,33.03
2019-06-20T04:45:41.083Z,29.90
2019-06-20T04:46:32.900Z,26.70
2019-06-20T04:47:19.191Z,31.03
2019-06-20T04:48:05.463Z,31.33
2019-06-20T04:48:51.315Z,26.73
2019-06-20T04:49:37.743Z,29.77
2019-06-20T04:50:23.579Z,32.70
2019-06-20T04:51:09.484Z,30.40
2019-06-20T04:51:56.484Z,29.73
2019-06-20T04:52:42.850Z,31.27
2019-06-20T04:53:29.055Z,29.57
2019-06-20T04:54:16.086Z,28.80
2019-06-20T04:55:02.077Z,28.60
2019-06-20T04:55:48.175Z,29.53
2019-06-20T04:56:34.513Z,29.67
2019-06-20T04:57:20.664Z,29.33
2019-06-20T04:58:07.066Z,28.03
2019-06-20T04:58:53.435Z,26.07
2019-06-20T04:59:39.295Z,27.43
2019-06-20T05:00:25.855Z,28.63
2019-06-20T05:01:11.782Z,29.40
2019-06-20T05:01:58.125Z,28.47
2019-06-20T05:02:44.416Z,29.23
2019-06-20T05:03:30.917Z,27.83
2019-06-20T05:04:16.874Z,30.10
2019-06-20T05:05:05.147Z,29.40
2019-06-20T05:05:51.040Z,30.80
2019-06-20T05:06:37.407Z,28.83
2019-06-20T05:07:23.715Z,28.73
2019-06-20T05:08:10.679Z,29.80
2019-06-20T05:08:57.059Z,30.83
2019-06-20T05:09:43.249Z,31.47
2019-06-20T05:10:30.198Z,29.63
2019-06-20T05:11:16.458Z,29.87
2019-06-20T05:12:04.026Z,31.73
2019-06-20T05:12:50.335Z,31.77
2019-06-20T05:13:36.208Z,30.97
2019-06-20T05:14:22.444Z,29.37
2019-06-20T05:15:08.548Z,32.20
2019-06-20T05:15:55.926Z,30.87
2019-06-20T05:16:41.839Z,29.73
2019-06-20T05:17:29.359Z,34.40
2019-06-20T05:18:15.703Z,32.37
2019-06-20T05:19:03.270Z,28.50
2019-06-20T05:19:49.655Z,29.00
2019-06-20T05:20:36.017Z,30.07
2019-06-20T05:21:22.516Z,30.27
2019-06-20T05:22:08.745Z,29.83
2019-06-20T05:22:54.820Z,32.60
2019-06-20T05:23:41.422Z,31.17
2019-06-20T05:24:27.710Z,31.17
2019-06-20T05:25:13.873Z,30.43
2019-06-20T05:26:00.303Z,29.35
2019-06-20T05:26:46.811Z,28.40
2019-06-20T05:27:33.239Z,28.33
2019-06-20T05:28:20.514Z,32.50
2019-06-20T05:29:06.962Z,29.73
2019-06-20T05:29:53.279Z,28.90
2019-06-20T05:30:39.796Z,30.77
2019-06-20T05:31:25.647Z,28.73
2019-06-20T05:32:11.985Z,29.23
2019-06-20T05:32:57.739Z,28.90
2019-06-20T05:33:43.594Z,32.00
2019-06-20T05:34:29.805Z,27.93
2019-06-20T05:35:15.737Z,28.03
2019-06-20T05:36:02.092Z,27.87
2019-06-20T05:36:48.307Z,28.20
2019-06-20T05:37:34.272Z,30.83
2019-06-20T05:38:20.408Z,31.23
2019-06-20T05:39:06.809Z,28.10
2019-06-20T05:39:53.219Z,28.83
2019-06-20T05:40:40.652Z,28.73
2019-06-20T05:41:26.952Z,29.57
2019-06-20T05:42:12.925Z,30.80
2019-06-20T05:42:59.296Z,28.40
2019-06-20T05:43:46.178Z,29.83
2019-06-20T05:44:33.619Z,29.00
2019-06-20T05:45:19.962Z,27.80
2019-06-20T05:46:10.705Z,27.30
2019-06-20T05:47:08.529Z,28.17
2019-06-20T05:47:41.719Z,29.90
2019-06-20T05:48:28.168Z,29.93
2019-06-20T05:49:14.579Z,27.80
2019-06-20T05:50:00.595Z,27.00
2019-06-20T05:50:48.589Z,26.47
2019-06-20T05:51:35.003Z,27.03
2019-06-20T05:52:21.579Z,27.03
2019-06-20T05:53:09.013Z,26.23
2019-06-20T05:53:55.441Z,26.43
2019-06-20T05:54:41.363Z,26.63
2019-06-20T05:55:27.328Z,28.43
2019-06-20T05:56:13.231Z,26.70
2019-06-20T05:57:03.182Z,28.23
2019-06-20T05:57:47.324Z,30.27
2019-06-20T05:58:33.907Z,26.30
2019-06-20T05:59:19.983Z,25.53
2019-06-20T06:00:06.349Z,26.67
2019-06-20T06:00:52.476Z,29.80
2019-06-20T06:01:38.340Z,30.60
2019-06-20T06:02:24.743Z,26.73
2019-06-20T06:03:13.606Z,28.27
2019-06-20T06:03:58.516Z,27.17
2019-06-20T06:04:44.675Z,27.53
2019-06-20T06:05:30.619Z,29.70
2019-06-20T06:06:16.899Z,29.30
2019-06-20T06:07:02.804Z,26.87
2019-06-20T06:07:50.819Z,26.27
2019-06-20T06:08:36.869Z,25.83
2019-06-20T06:09:22.810Z,26.30
2019-06-20T06:10:09.683Z,28.30
2019-06-20T06:10:55.715Z,28.00
2019-06-20T06:11:42.084Z,26.20
2019-06-20T06:12:28.248Z,27.83
2019-06-20T06:13:14.156Z,26.33
2019-06-20T06:14:02.135Z,26.27
2019-06-20T06:14:49.126Z,30.67
2019-06-20T06:15:35.559Z,30.60
2019-06-20T06:16:26.984Z,25.73
2019-06-20T06:17:09.742Z,25.80
2019-06-20T06:17:56.295Z,27.57
2019-06-20T06:18:42.640Z,24.73
2019-06-20T06:19:29.038Z,26.43
2019-06-20T06:20:15.172Z,27.43
2019-06-20T06:21:01.385Z,27.27
2019-06-20T06:21:47.351Z,24.57
2019-06-20T06:22:33.714Z,25.10
2019-06-20T06:23:20.101Z,25.67
2019-06-20T06:24:06.778Z,25.10
2019-06-20T06:24:52.784Z,25.40
2019-06-20T06:25:42.372Z,24.53
2019-06-20T06:26:28.274Z,22.57
2019-06-20T06:27:14.504Z,25.20
2019-06-20T06:28:00.841Z,24.23
2019-06-20T06:28:46.954Z,24.47
2019-06-20T06:29:33.197Z,27.60
2019-06-20T06:30:21.579Z,27.67
2019-06-20T06:31:07.704Z,25.50
2019-06-20T06:31:54.199Z,25.07
2019-06-20T06:32:40.838Z,26.13
2019-06-20T06:33:27.953Z,26.80
2019-06-20T06:34:14.254Z,24.07
2019-06-20T06:35:00.500Z,26.67
2019-06-20T06:35:47.191Z,24.13
2019-06-20T06:36:34.514Z,24.10
2019-06-20T06:37:20.963Z,23.97
2019-06-20T06:38:07.405Z,22.60
2019-06-20T06:38:53.946Z,22.77
2019-06-20T06:39:43.397Z,26.37
2019-06-20T06:40:28.992Z,25.17
2019-06-20T06:41:15.347Z,23.87
2019-06-20T06:42:02.864Z,24.60
2019-06-20T06:42:49.347Z,24.37
2019-06-20T06:43:41.565Z,25.50
2019-06-20T06:44:24.369Z,25.37
2019-06-20T06:45:11.354Z,25.73
2019-06-20T06:45:57.524Z,24.60
2019-06-20T06:46:52.798Z,26.33
2019-06-20T06:47:33.387Z,25.53
2019-06-20T06:48:20.252Z,22.50
2019-06-20T06:49:06.152Z,24.60
2019-06-20T06:49:52.306Z,23.50
2019-06-20T06:50:40.014Z,26.13
2019-06-20T06:51:26.279Z,23.17
2019-06-20T06:52:12.242Z,22.07
2019-06-20T06:52:58.918Z,25.67
2019-06-20T06:53:45.281Z,21.53
2019-06-20T06:54:31.320Z,22.73
2019-06-20T06:55:18.044Z,25.33
2019-06-20T06:56:04.234Z,22.13
2019-06-20T06:56:50.119Z,22.10
2019-06-20T06:57:36.379Z,21.30
2019-06-20T06:58:22.691Z,21.00
2019-06-20T06:59:09.062Z,21.80
2019-06-20T06:59:56.550Z,19.53
2019-06-20T07:00:42.751Z,19.70
2019-06-20T07:01:29.327Z,21.23
2019-06-20T07:02:17.059Z,21.37
2019-06-20T07:03:04.124Z,21.37
2019-06-20T07:03:50.149Z,20.07
2019-06-20T07:04:37.372Z,20.13
2019-06-20T07:05:23.675Z,20.23
2019-06-20T07:06:09.835Z,21.30
2019-06-20T07:06:55.916Z,18.87
2019-06-20T07:07:41.945Z,18.93
2019-06-20T07:08:28.136Z,18.20
2019-06-20T07:09:14.006Z,17.03
2019-06-20T07:10:00.944Z,18.43
2019-06-20T07:10:47.447Z,17.53
2019-06-20T07:11:33.584Z,17.17
2019-06-20T07:12:19.519Z,17.40
2019-06-20T07:13:05.552Z,16.47
2019-06-20T07:13:51.847Z,17.37
2019-06-20T07:14:42.634Z,17.93
2019-06-20T07:15:29.695Z,15.60
2019-06-20T07:16:15.856Z,18.43
2019-06-20T07:17:01.748Z,18.80
2019-06-20T07:17:48.020Z,15.23
2019-06-20T07:18:34.402Z,16.00
2019-06-20T07:19:20.217Z,17.00
2019-06-20T07:20:07.320Z,17.17
2019-06-20T07:20:53.612Z,17.27
2019-06-20T07:21:40.119Z,17.83
2019-06-20T07:22:27.543Z,16.67
2019-06-20T07:23:14.009Z,16.90
2019-06-20T07:24:00.623Z,17.20
2019-06-20T07:24:47.148Z,20.60
2019-06-20T07:25:33.168Z,16.07
2019-06-20T07:26:19.751Z,17.10
2019-06-20T07:27:07.257Z,17.27
2019-06-20T07:27:53.612Z,17.37
2019-06-20T07:28:41.257Z,16.13
2019-06-20T07:29:27.524Z,17.10
2019-06-20T07:30:13.743Z,16.00
2019-06-20T07:30:59.970Z,16.03
2019-06-20T07:31:47.735Z,17.37
2019-06-20T07:32:34.073Z,14.90
2019-06-20T07:33:23.875Z,14.20
2019-06-20T07:34:10.273Z,14.47
2019-06-20T07:34:56.233Z,15.20
2019-06-20T07:35:42.244Z,13.27
2019-06-20T07:36:28.200Z,13.87
2019-06-20T07:37:15.427Z,12.60
2019-06-20T07:38:02.045Z,13.70
2019-06-20T07:38:48.909Z,13.73
2019-06-20T07:39:36.182Z,13.13
2019-06-20T07:40:23.032Z,13.93
2019-06-20T07:41:09.556Z,13.93
2019-06-20T07:41:55.923Z,13.33
2019-06-20T07:42:43.510Z,13.07
2019-06-20T07:43:30.128Z,13.30
2019-06-20T07:44:16.300Z,12.47
2019-06-20T07:45:04.269Z,11.50
2019-06-20T07:46:02.223Z,13.90
2019-06-20T07:46:38.712Z,14.97
2019-06-20T07:47:25.932Z,14.00
2019-06-20T07:48:12.795Z,13.30
2019-06-20T07:48:58.975Z,12.93
2019-06-20T07:49:45.179Z,13.43
2019-06-20T07:50:31.599Z,12.17
2019-06-20T07:51:17.687Z,13.23
2019-06-20T07:52:03.970Z,13.30
2019-06-20T07:53:01.489Z,13.50
2019-06-20T07:53:38.266Z,14.30
2019-06-20T07:54:25.943Z,13.70
2019-06-20T07:55:12.319Z,15.40
2019-06-20T07:55:58.789Z,13.30
2019-06-20T07:56:45.247Z,13.30
2019-06-20T07:57:34.669Z,12.67
2019-06-20T07:58:20.923Z,13.33
2019-06-20T07:59:09.943Z,13.23
2019-06-20T07:59:56.366Z,13.50
2019-06-20T08:00:42.399Z,12.37
2019-06-20T08:01:28.492Z,13.43
2019-06-20T08:02:16.009Z,12.67
2019-06-20T08:03:02.485Z,12.20
2019-06-20T08:03:48.944Z,12.20
2019-06-20T08:04:35.131Z,13.30
2019-06-20T08:05:21.891Z,12.90
2019-06-20T08:06:08.431Z,13.63
2019-06-20T08:06:54.760Z,13.60
2019-06-20T08:07:41.370Z,11.23
2019-06-20T08:08:27.928Z,12.53
2019-06-20T08:09:14.204Z,12.73
2019-06-20T08:10:01.741Z,13.13
2019-06-20T08:10:47.949Z,12.33
2019-06-20T08:11:33.745Z,12.27
2019-06-20T08:12:19.396Z,11.87
2019-06-20T08:13:05.355Z,12.93
2019-06-20T08:13:51.508Z,12.37
2019-06-20T08:14:37.929Z,11.63
2019-06-20T08:15:24.119Z,11.53
2019-06-20T08:16:10.066Z,10.50
2019-06-20T08:16:56.350Z,10.93
2019-06-20T08:17:42.806Z,11.33
2019-06-20T08:18:29.039Z,11.93
2019-06-20T08:19:14.848Z,9.90
2019-06-20T08:20:01.123Z,11.50
2019-06-20T08:20:47.432Z,12.37
2019-06-20T08:21:33.307Z,11.10
2019-06-20T08:22:20.381Z,11.70
2019-06-20T08:23:06.678Z,10.87
2019-06-20T08:23:53.235Z,11.30
2019-06-20T08:24:39.839Z,12.63
2019-06-20T08:25:26.360Z,10.63
2019-06-20T08:26:13.063Z,10.60
2019-06-20T08:27:00.425Z,12.60
2019-06-20T08:27:50.241Z,12.33
2019-06-20T08:28:36.331Z,10.70
2019-06-20T08:29:22.718Z,10.10
2019-06-20T08:30:09.252Z,10.43
2019-06-20T08:30:57.714Z,11.30
2019-06-20T08:31:45.024Z,11.80
2019-06-20T08:32:31.561Z,12.07
2019-06-20T08:33:17.379Z,12.67
2019-06-20T08:34:04.446Z,10.90
2019-06-20T08:34:50.651Z,10.83
2019-06-20T08:35:37.290Z,11.57
2019-06-20T08:36:23.648Z,11.90
2019-06-20T08:37:09.912Z,11.50
2019-06-20T08:37:57.833Z,10.17
2019-06-20T08:38:44.847Z,11.07
2019-06-20T08:39:30.857Z,11.37
2019-06-20T08:40:17.664Z,10.67
2019-06-20T08:41:04.434Z,9.40
2019-06-20T08:41:51.299Z,9.17
2019-06-20T08:42:37.408Z,12.07
2019-06-20T08:43:23.825Z,13.73
2019-06-20T08:44:10.043Z,10.77
2019-06-20T08:44:57.845Z,9.53
2019-06-20T08:45:44.807Z,12.10
2019-06-20T08:46:30.888Z,10.43
2019-06-20T08:47:16.888Z,11.00
2019-06-20T08:48:04.724Z,10.20
2019-06-20T08:48:52.355Z,9.90
2019-06-20T08:49:38.902Z,13.00
2019-06-20T08:50:25.539Z,11.03
2019-06-20T08:51:14.546Z,10.30
2019-06-20T08:52:01.211Z,10.03
2019-06-20T08:52:48.384Z,10.53
2019-06-20T08:53:34.358Z,10.87
2019-06-20T08:54:21.433Z,12.13
2019-06-20T08:55:08.076Z,12.00
2019-06-20T08:55:55.985Z,12.63
2019-06-20T08:56:43.947Z,10.67
2019-06-20T08:57:30.265Z,10.60
2019-06-20T08:58:16.119Z,10.40
2019-06-20T08:59:03.332Z,10.67
2019-06-20T08:59:49.462Z,12.83
2019-06-20T09:00:36.995Z,8.83
2019-06-20T09:01:23.614Z,10.93
2019-06-20T09:02:10.008Z,10.23
2019-06-20T09:02:58.669Z,11.60
2019-06-20T09:03:45.107Z,12.50
2019-06-20T09:04:32.704Z,12.87
2019-06-20T09:05:19.342Z,11.53
2019-06-20T09:06:05.593Z,10.90
2019-06-20T09:06:51.581Z,12.43
2019-06-20T09:07:37.897Z,10.73
2019-06-20T09:08:24.303Z,10.30
2019-06-20T09:09:10.342Z,11.63
2019-06-20T09:09:57.615Z,10.13
2019-06-20T09:10:43.891Z,11.87
2019-06-20T09:11:30.110Z,12.23
2019-06-20T09:12:16.119Z,13.30
2019-06-20T09:13:04.243Z,12.57
2019-06-20T09:13:50.633Z,11.43
2019-06-20T09:14:37.547Z,14.37
2019-06-20T09:15:24.395Z,12.50
2019-06-20T09:16:23.968Z,11.53
2019-06-20T09:16:59.406Z,11.33
2019-06-20T09:17:46.016Z,13.93
2019-06-20T09:18:32.312Z,10.60
2019-06-20T09:19:18.342Z,10.73
2019-06-20T09:20:07.274Z,10.43
2019-06-20T09:20:55.951Z,9.20
2019-06-20T09:21:41.939Z,9.87
2019-06-20T09:22:27.975Z,10.57
2019-06-20T09:23:14.359Z,9.97
2019-06-20T09:24:00.397Z,8.20
2019-06-20T09:24:46.684Z,10.80
2019-06-20T09:25:33.132Z,8.93
2019-06-20T09:26:19.261Z,9.80
2019-06-20T09:27:06.511Z,8.63
2019-06-20T09:27:54.371Z,9.30
2019-06-20T09:28:40.942Z,9.40
2019-06-20T09:29:40.863Z,8.40
2019-06-20T09:30:17.175Z,11.77
2019-06-20T09:31:05.451Z,11.33
2019-06-20T09:31:52.475Z,8.77
2019-06-20T09:32:39.202Z,8.73
2019-06-20T09:33:25.107Z,10.47
2019-06-20T09:34:11.518Z,8.40
2019-06-20T09:34:58.662Z,7.73
2019-06-20T09:35:45.323Z,8.20
2019-06-20T09:36:31.483Z,10.73
2019-06-20T09:37:18.086Z,8.93
2019-06-20T09:38:04.740Z,8.80
2019-06-20T09:38:52.454Z,7.40
2019-06-20T09:39:39.291Z,8.20
2019-06-20T09:40:26.718Z,7.67
2019-06-20T09:41:12.946Z,9.03
2019-06-20T09:41:59.291Z,7.80
2019-06-20T09:42:45.270Z,8.70
2019-06-20T09:43:31.335Z,8.13
2019-06-20T09:44:17.759Z,7.70
2019-06-20T09:45:05.615Z,7.10
2019-06-20T09:45:53.148Z,7.50
2019-06-20T09:46:40.456Z,7.60
2019-06-20T09:47:26.426Z,6.83
2019-06-20T09:48:13.148Z,7.23
2019-06-20T09:49:00.733Z,8.90
2019-06-20T09:49:50.544Z,7.30
2019-06-20T09:50:35.354Z,8.07
2019-06-20T09:51:21.428Z,7.03
2019-06-20T09:52:07.542Z,8.33
2019-06-20T09:52:54.892Z,7.60
2019-06-20T09:53:42.151Z,8.87
2019-06-20T09:54:28.244Z,7.00
2019-06-20T09:55:15.148Z,9.03
2019-06-20T09:56:01.708Z,8.33
2019-06-20T09:56:53.084Z,9.23
2019-06-20T09:57:37.880Z,10.40
2019-06-20T09:58:24.158Z,7.87
2019-06-20T09:59:26.669Z,7.77
2019-06-20T10:00:07.606Z,7.80
2019-06-20T10:00:47.593Z,9.13
2019-06-20T10:01:34.352Z,8.53
2019-06-20T10:02:20.198Z,8.40
2019-06-20T10:03:06.665Z,8.70
2019-06-20T10:03:54.747Z,8.33
2019-06-20T10:04:40.956Z,8.50
2019-06-20T10:05:29.123Z,8.70